createdAt,value
2023-04-15T00:00:02.361Z,8.23
2023-04-15T00:03:16.530Z,6.32
2023-04-15T00:06:22.380Z,16.00
2023-04-15T00:12:30.911Z,12.15
2023-04-15T00:15:35.517Z,9.20
2023-04-15T00:18:40.094Z,8.00
2023-04-15T00:21:44.625Z,9.30
2023-04-15T00:24:48.657Z,14.20
2023-04-15T00:27:53.024Z,5.20
2023-04-15T00:30:57.393Z,6.15
2023-04-15T00:34:01.890Z,51.03
2023-04-15T00:37:06.621Z,17.30
2023-04-15T00:40:14.745Z,7.67
2023-04-15T00:43:18.796Z,3.22
2023-04-15T00:46:24.496Z,3.60
2023-04-15T00:49:30.510Z,7.40
2023-04-15T00:52:35.744Z,3.95
2023-04-15T00:55:40.592Z,9.90
2023-04-15T00:58:44.872Z,6.37
2023-04-15T01:01:49.188Z,4.60
2023-04-15T01:04:53.354Z,4.72
2023-04-15T01:07:57.810Z,8.55
2023-04-15T01:11:04.358Z,21.73
2023-04-15T01:14:10.269Z,4.03
2023-04-15T01:17:15.349Z,4.13
2023-04-15T01:20:19.959Z,4.68
2023-04-15T01:23:24.792Z,7.78
2023-04-15T01:26:29.111Z,19.20
2023-04-15T01:29:37.735Z,3.58
2023-04-15T01:32:42.667Z,17.23
2023-04-15T01:36:07.954Z,2.75
2023-04-15T01:39:12.473Z,5.93
2023-04-15T01:42:16.541Z,3.50
2023-04-15T01:45:20.926Z,5.93
2023-04-15T01:48:25.593Z,3.75
2023-04-15T01:51:29.880Z,2.75
2023-04-15T01:54:34.593Z,6.50
2023-04-15T01:57:38.967Z,2.22
2023-04-15T02:00:43.744Z,8.65
2023-04-15T02:03:48.465Z,3.88
2023-04-15T02:06:53.272Z,4.05
2023-04-15T02:09:59.329Z,5.53
2023-04-15T02:13:04.000Z,8.23
2023-04-15T02:16:18.230Z,5.63
2023-04-15T02:19:22.960Z,5.93
2023-04-15T02:22:27.008Z,7.83
2023-04-15T02:25:31.333Z,10.60
2023-04-15T02:28:35.658Z,2.55
2023-04-15T02:31:41.381Z,4.28
2023-04-15T02:34:45.149Z,2.63
2023-04-15T02:37:49.647Z,2.40
2023-04-15T02:40:55.270Z,7.47
2023-04-15T02:44:00.160Z,1.83
2023-04-15T02:47:07.921Z,4.97
2023-04-15T02:50:14.040Z,22.42
2023-04-15T02:53:20.555Z,9.15
2023-04-15T02:56:24.941Z,8.68
2023-04-15T02:59:29.095Z,2.88
2023-04-15T03:02:38.271Z,3.83
2023-04-15T03:05:43.123Z,4.13
2023-04-15T03:08:48.324Z,6.30
2023-04-15T03:11:54.466Z,4.70
2023-04-15T03:14:59.458Z,11.52
2023-04-15T03:18:10.467Z,10.80
2023-04-15T03:21:14.650Z,6.78
2023-04-15T03:24:18.897Z,5.45
2023-04-15T03:27:23.375Z,32.30
2023-04-15T03:30:31.121Z,6.65
2023-04-15T03:33:35.250Z,5.90
2023-04-15T03:36:39.286Z,5.70
2023-04-15T03:39:43.691Z,5.95
2023-04-15T03:42:48.544Z,9.45
2023-04-15T03:45:53.211Z,6.47
2023-04-15T03:48:57.562Z,8.57
2023-04-15T03:52:02.190Z,7.30
2023-04-15T03:55:06.802Z,7.47
2023-04-15T03:58:13.718Z,7.20
2023-04-15T04:01:18.247Z,8.68
2023-04-15T04:04:22.973Z,6.50
2023-04-15T04:07:26.972Z,6.00
2023-04-15T04:10:30.870Z,8.10
2023-04-15T04:13:35.229Z,7.68
2023-04-15T04:16:39.813Z,11.07
2023-04-15T04:19:44.294Z,8.02
2023-04-15T04:22:48.877Z,10.93
2023-04-15T04:25:54.303Z,9.32
2023-04-15T04:32:02.915Z,13.43
2023-04-15T04:35:08.098Z,8.95
2023-04-15T04:38:12.742Z,17.65
2023-04-15T04:41:17.341Z,11.10
2023-04-15T04:44:23.063Z,12.13
2023-04-15T04:47:27.756Z,14.13
2023-04-15T04:50:32.565Z,7.80
2023-04-15T04:53:38.546Z,11.43
2023-04-15T04:56:42.787Z,7.40
2023-04-15T04:59:47.452Z,13.63
2023-04-15T05:02:52.468Z,13.00
2023-04-15T05:05:57.307Z,11.50
2023-04-15T05:09:02.470Z,22.27
2023-04-15T05:12:08.603Z,12.68
2023-04-15T05:15:15.089Z,12.73
2023-04-15T05:18:22.972Z,9.88
2023-04-15T05:21:28.433Z,18.95
2023-04-15T05:24:33.181Z,12.20
2023-04-15T05:27:37.704Z,9.70
2023-04-15T05:30:41.929Z,16.10
2023-04-15T05:33:46.337Z,72.88
2023-04-15T05:36:50.759Z,10.25
2023-04-15T05:39:57.728Z,11.73
2023-04-15T05:43:02.460Z,11.00
2023-04-15T05:46:06.702Z,16.03
2023-04-15T05:49:10.990Z,10.15
2023-04-15T05:52:15.447Z,12.80
2023-04-15T05:55:19.965Z,10.50
2023-04-15T05:58:24.487Z,11.38
2023-04-15T06:01:32.413Z,15.20
2023-04-15T06:04:37.906Z,28.20
2023-04-15T06:10:51.890Z,11.27
2023-04-15T06:13:56.314Z,10.88
2023-04-15T06:17:00.846Z,16.98
2023-04-15T06:20:05.602Z,20.95
2023-04-15T06:23:09.656Z,11.77
2023-04-15T06:26:14.057Z,28.52
2023-04-15T06:29:18.458Z,24.02
2023-04-15T06:32:22.824Z,19.30
2023-04-15T06:35:27.038Z,11.60
2023-04-15T06:38:30.951Z,23.55
2023-04-15T06:41:36.391Z,24.25
2023-04-15T06:47:45.135Z,11.43
2023-04-15T06:50:50.733Z,11.27
2023-04-15T06:53:54.847Z,14.48
2023-04-15T06:57:02.112Z,11.50
2023-04-15T07:00:08.498Z,21.42
2023-04-15T07:03:14.681Z,12.57
2023-04-15T07:06:18.987Z,14.23
2023-04-15T07:09:24.681Z,13.77
2023-04-15T07:15:33.506Z,12.57
2023-04-15T07:18:37.566Z,9.55
2023-04-15T07:21:42.258Z,12.23
2023-04-15T07:24:47.483Z,17.00
2023-04-15T07:27:55.469Z,32.50
2023-04-15T07:30:59.525Z,14.90
2023-04-15T07:34:04.262Z,115.45
2023-04-15T07:37:08.715Z,16.25
2023-04-15T07:40:15.578Z,22.58
2023-04-15T07:43:21.505Z,14.15
2023-04-15T07:46:28.104Z,20.92
2023-04-15T07:49:32.710Z,22.25
2023-04-15T07:52:40.121Z,11.23
2023-04-15T07:55:44.612Z,14.82
2023-04-15T07:58:49.165Z,22.13
2023-04-15T08:01:53.621Z,16.60
2023-04-15T08:04:58.649Z,15.73
2023-04-15T08:08:03.159Z,28.95
2023-04-15T08:11:07.498Z,27.42
2023-04-15T08:14:11.721Z,13.82
2023-04-15T08:17:16.583Z,11.18
2023-04-15T08:20:21.529Z,9.38
2023-04-15T08:23:26.043Z,11.10
2023-04-15T08:26:30.308Z,16.33
2023-04-15T08:29:35.013Z,10.90
2023-04-15T08:32:38.851Z,13.95
2023-04-15T08:35:43.360Z,34.03
2023-04-15T08:38:47.767Z,12.52
2023-04-15T08:42:04.355Z,20.25
2023-04-15T08:45:14.202Z,31.85
2023-04-15T08:48:18.672Z,18.55
2023-04-15T08:51:24.568Z,51.53
2023-04-15T08:54:30.149Z,24.52
2023-04-15T08:57:36.216Z,20.73
2023-04-15T09:00:40.513Z,42.50
2023-04-15T09:03:45.770Z,24.05
2023-04-15T09:06:49.925Z,18.48
2023-04-15T09:09:55.037Z,22.45
2023-04-15T09:13:27.586Z,26.23
2023-04-15T09:16:31.798Z,17.90
2023-04-15T09:19:36.715Z,23.52
2023-04-15T09:22:42.581Z,12.73
2023-04-15T09:25:52.918Z,28.80
2023-04-15T09:29:16.014Z,21.92
2023-04-15T09:32:22.095Z,21.35
2023-04-15T09:35:30.917Z,36.20
2023-04-15T09:38:35.560Z,19.55
2023-04-15T09:41:40.319Z,19.13
2023-04-15T09:44:45.097Z,52.63
2023-04-15T09:47:49.878Z,99.70
2023-04-15T09:50:58.857Z,104.30
2023-04-15T09:54:03.325Z,62.17
2023-04-15T09:57:13.128Z,29.95
2023-04-15T10:00:18.564Z,33.90
2023-04-15T10:03:36.263Z,74.90
2023-04-15T10:06:41.576Z,33.53
2023-04-15T10:09:47.926Z,139.00
2023-04-15T10:12:53.840Z,44.97
2023-04-15T10:16:03.352Z,129.63
2023-04-15T10:19:09.948Z,103.65
2023-04-15T10:22:16.089Z,46.65
2023-04-15T10:25:20.750Z,70.72
2023-04-15T10:28:25.200Z,40.28
2023-04-15T10:31:30.828Z,22.92
2023-04-15T10:37:41.791Z,14.32
2023-04-15T10:40:47.644Z,15.10
2023-04-15T10:43:57.698Z,20.88
2023-04-15T10:47:02.507Z,23.45
2023-04-15T10:50:07.937Z,34.67
2023-04-15T10:53:12.750Z,58.55
2023-04-15T10:56:19.042Z,48.05
2023-04-15T10:59:23.452Z,65.10
2023-04-15T11:02:46.703Z,50.60
2023-04-15T11:05:53.127Z,53.60
2023-04-15T11:09:03.491Z,44.03
2023-04-15T11:12:11.188Z,42.00
2023-04-15T11:15:41.891Z,34.83
2023-04-15T11:18:56.738Z,33.45
2023-04-15T11:22:11.721Z,37.75
2023-04-15T11:25:36.619Z,35.53
2023-04-15T11:28:43.699Z,74.93
2023-04-15T11:31:50.412Z,56.60
2023-04-15T11:34:54.782Z,22.55
2023-04-15T11:37:59.510Z,25.10
2023-04-15T11:41:04.948Z,48.35
2023-04-15T11:44:19.252Z,19.42
2023-04-15T11:47:25.350Z,28.77
2023-04-15T11:50:29.342Z,44.78
2023-04-15T11:53:40.503Z,45.15
2023-04-15T11:56:52.755Z,40.20
2023-04-15T11:59:57.161Z,60.13
2023-04-15T12:03:22.809Z,49.15
2023-04-15T12:06:33.406Z,48.63
2023-04-15T12:09:41.819Z,47.13
2023-04-15T12:12:51.095Z,38.83
2023-04-15T12:15:57.407Z,168.55
2023-04-15T12:19:06.087Z,152.93
2023-04-15T12:22:14.853Z,70.78
2023-04-15T12:25:19.499Z,93.78
2023-04-15T12:28:23.991Z,226.30
2023-04-15T12:31:27.978Z,193.05
2023-04-15T12:34:34.524Z,160.48
2023-04-15T12:37:39.154Z,87.93
2023-04-15T12:40:43.890Z,124.20
2023-04-15T12:43:48.027Z,110.90
2023-04-15T12:46:56.501Z,129.93
2023-04-15T12:50:01.069Z,113.60
2023-04-15T12:53:07.288Z,117.65
2023-04-15T12:56:12.456Z,99.63
2023-04-15T12:59:19.493Z,103.55
2023-04-15T13:05:30.820Z,51.33
2023-04-15T13:08:38.560Z,59.83
2023-04-15T13:11:45.485Z,89.20
2023-04-15T13:14:50.225Z,167.60
2023-04-15T13:17:54.863Z,84.80
2023-04-15T13:20:59.119Z,30.38
2023-04-15T13:24:04.061Z,57.15
2023-04-15T13:27:09.246Z,108.38
2023-04-15T13:30:14.131Z,107.33
2023-04-15T13:33:19.310Z,38.50
2023-04-15T13:36:23.583Z,57.20
2023-04-15T13:39:28.155Z,107.15
2023-04-15T13:42:32.481Z,94.13
2023-04-15T13:45:37.116Z,144.80
2023-04-15T13:48:41.912Z,52.38
2023-04-15T13:51:46.212Z,103.67
2023-04-15T13:55:18.412Z,150.65
2023-04-15T13:58:14.996Z,129.50
2023-04-15T14:01:19.752Z,58.30
2023-04-15T14:04:24.032Z,39.78
2023-04-15T14:07:30.293Z,28.00
2023-04-15T14:10:34.866Z,57.85
2023-04-15T14:13:39.429Z,48.92
2023-04-15T14:16:44.323Z,97.93
2023-04-15T14:19:49.114Z,51.83
2023-04-15T14:22:53.929Z,29.20
2023-04-15T14:25:58.056Z,29.10
2023-04-15T14:29:02.632Z,37.00
2023-04-15T14:32:12.386Z,41.17
2023-04-15T14:35:17.394Z,50.45
2023-04-15T14:38:26.881Z,43.72
2023-04-15T14:41:32.264Z,57.25
2023-04-15T14:44:40.159Z,42.22
2023-04-15T14:47:45.243Z,37.15
2023-04-15T14:50:50.068Z,33.03
2023-04-15T14:53:54.488Z,23.48
2023-04-15T14:56:59.128Z,16.27
2023-04-15T15:00:05.026Z,16.77
2023-04-15T15:03:13.760Z,17.13
2023-04-15T15:06:18.567Z,49.10
2023-04-15T15:09:24.655Z,39.10
2023-04-15T15:12:29.389Z,41.65
2023-04-15T15:15:35.861Z,29.92
2023-04-15T15:18:40.406Z,22.10
2023-04-15T15:21:44.597Z,24.52
2023-04-15T15:24:48.986Z,24.42
2023-04-15T15:27:54.241Z,27.15
2023-04-15T15:30:58.728Z,28.42
2023-04-15T15:34:03.767Z,30.88
2023-04-15T15:37:08.303Z,32.60
2023-04-15T15:40:13.134Z,36.40
2023-04-15T15:43:17.717Z,45.95
2023-04-15T15:46:24.986Z,30.40
2023-04-15T15:49:29.872Z,32.47
2023-04-15T15:52:34.813Z,30.53
2023-04-15T15:55:39.707Z,29.33
2023-04-15T15:58:47.145Z,28.33
2023-04-15T16:01:51.550Z,25.23
2023-04-15T16:04:56.060Z,29.10
2023-04-15T16:08:00.857Z,34.17
2023-04-15T16:11:05.703Z,47.20
2023-04-15T16:14:11.384Z,54.70
2023-04-15T16:20:20.252Z,22.50
2023-04-15T16:23:24.937Z,36.45
2023-04-15T16:26:29.816Z,53.05
2023-04-15T16:29:35.233Z,32.47
2023-04-15T16:32:39.682Z,21.33
2023-04-15T16:35:44.494Z,25.48
2023-04-15T16:38:49.803Z,44.03
2023-04-15T16:41:55.083Z,33.47
2023-04-15T16:44:59.527Z,32.90
2023-04-15T16:51:19.047Z,83.15
2023-04-15T16:54:23.681Z,27.75
2023-04-15T16:57:50.841Z,17.40
2023-04-15T17:00:52.660Z,106.68
2023-04-15T17:03:57.580Z,28.30
2023-04-15T17:07:02.372Z,33.58
2023-04-15T17:10:07.604Z,23.80
2023-04-15T17:13:12.117Z,20.63
2023-04-15T17:16:17.090Z,37.80
2023-04-15T17:19:23.870Z,33.47
2023-04-15T17:22:41.136Z,19.20
2023-04-15T17:25:46.781Z,15.05
2023-04-15T17:28:53.119Z,13.23
2023-04-15T17:32:05.843Z,15.07
2023-04-15T17:35:30.226Z,18.10
2023-04-15T17:38:57.595Z,21.23
2023-04-15T17:42:23.139Z,13.57
2023-04-15T17:45:48.310Z,15.33
2023-04-15T17:49:12.360Z,20.30
2023-04-15T17:52:36.876Z,19.85
2023-04-15T17:56:01.664Z,23.88
2023-04-15T17:59:26.354Z,18.58
2023-04-15T18:02:50.791Z,24.08
2023-04-15T18:06:15.551Z,30.33
2023-04-15T18:09:39.840Z,21.33
2023-04-15T18:13:04.247Z,23.92
2023-04-15T18:16:28.512Z,25.10
2023-04-15T18:19:53.324Z,24.60
2023-04-15T18:22:58.799Z,32.60
2023-04-15T18:26:03.348Z,25.65
2023-04-15T18:29:08.079Z,20.92
2023-04-15T18:32:12.788Z,23.38
2023-04-15T18:35:17.959Z,25.55
2023-04-15T18:38:23.297Z,64.35
2023-04-15T18:41:28.014Z,26.85
2023-04-15T18:44:32.344Z,59.20
2023-04-15T18:47:36.905Z,45.20
2023-04-15T18:50:41.706Z,14.93
2023-04-15T18:53:46.601Z,64.88
2023-04-15T18:56:52.344Z,22.50
2023-04-15T19:03:00.716Z,20.48
2023-04-15T19:06:05.529Z,13.83
2023-04-15T19:09:10.078Z,9.02
2023-04-15T19:12:15.023Z,10.10
2023-04-15T19:15:19.666Z,8.55
2023-04-15T19:18:24.470Z,5.90
2023-04-15T19:21:29.541Z,8.15
2023-04-15T19:24:33.970Z,7.75
2023-04-15T19:27:39.103Z,6.05
2023-04-15T19:30:44.426Z,7.80
2023-04-15T19:33:48.888Z,7.65
2023-04-15T19:36:53.487Z,6.43
2023-04-15T19:39:58.098Z,7.07
2023-04-15T19:43:02.790Z,3.42
2023-04-15T19:46:08.655Z,6.65
2023-04-15T19:52:16.610Z,5.18
2023-04-15T19:55:21.799Z,8.07
2023-04-15T19:58:26.998Z,6.47
2023-04-15T20:01:31.731Z,3.25
2023-04-15T20:04:36.336Z,4.88
2023-04-15T20:07:43.266Z,13.35
2023-04-15T20:10:47.904Z,6.90
2023-04-15T20:13:52.366Z,4.65
2023-04-15T20:16:56.964Z,5.88
2023-04-15T20:20:01.389Z,4.20
2023-04-15T20:23:06.851Z,7.25
2023-04-15T20:26:11.534Z,6.28
2023-04-15T20:29:16.026Z,6.70
2023-04-15T20:32:20.732Z,14.23
2023-04-15T20:35:28.900Z,43.17
2023-04-15T20:38:33.449Z,19.08
2023-04-15T20:41:38.028Z,19.13
2023-04-15T20:44:42.583Z,35.83
2023-04-15T20:47:46.988Z,61.42
2023-04-15T20:50:52.448Z,16.98
2023-04-15T20:53:57.101Z,10.05
2023-04-15T20:57:02.584Z,11.43
2023-04-15T21:00:07.917Z,8.00
2023-04-15T21:03:15.931Z,7.60
2023-04-15T21:06:20.527Z,7.83
2023-04-15T21:09:26.457Z,9.13
2023-04-15T21:12:31.129Z,33.78
2023-04-15T21:15:35.891Z,105.47
2023-04-15T21:18:43.233Z,43.88
2023-04-15T21:21:47.406Z,29.25
2023-04-15T21:24:51.953Z,102.68
2023-04-15T21:27:56.631Z,18.63
2023-04-15T21:31:01.247Z,23.83
2023-04-15T21:34:05.480Z,29.35
2023-04-15T21:37:09.557Z,12.10
2023-04-15T21:40:15.672Z,9.85
2023-04-15T21:43:19.992Z,45.17
2023-04-15T21:46:25.361Z,40.40
2023-04-15T21:49:37.144Z,23.95
2023-04-15T21:52:42.252Z,97.57
2023-04-15T21:55:47.039Z,43.83
2023-04-15T21:58:52.187Z,46.27
2023-04-15T22:01:57.175Z,16.77
2023-04-15T22:05:04.075Z,18.27
2023-04-15T22:08:08.730Z,5.97
2023-04-15T22:11:28.759Z,5.30
2023-04-15T22:14:32.844Z,4.93
2023-04-15T22:17:37.156Z,15.57
2023-04-15T22:20:42.393Z,45.25
2023-04-15T22:23:50.991Z,41.78
2023-04-15T22:26:55.084Z,26.90
2023-04-15T22:29:59.728Z,27.27
2023-04-15T22:33:04.631Z,29.03
2023-04-15T22:36:08.828Z,6.97
2023-04-15T22:39:12.744Z,14.85
2023-04-15T22:42:16.733Z,4.32
2023-04-15T22:45:21.324Z,5.68
2023-04-15T22:48:26.130Z,15.63
2023-04-15T22:51:30.817Z,7.32
2023-04-15T22:54:34.946Z,6.78
2023-04-15T22:57:39.159Z,8.95
2023-04-15T23:00:43.714Z,13.95
2023-04-15T23:03:56.142Z,5.07
2023-04-15T23:07:08.042Z,19.75
2023-04-15T23:10:12.767Z,6.10
2023-04-15T23:13:17.804Z,4.97
2023-04-15T23:16:21.842Z,6.43
2023-04-15T23:19:26.169Z,7.40
2023-04-15T23:22:30.706Z,5.57
2023-04-15T23:25:36.480Z,5.05
2023-04-15T23:28:41.038Z,10.05
2023-04-15T23:31:45.482Z,7.30
2023-04-15T23:34:50.774Z,9.48
2023-04-15T23:37:55.618Z,7.72
2023-04-15T23:41:01.895Z,11.40
2023-04-15T23:44:10.388Z,11.10
2023-04-15T23:47:16.902Z,4.18
2023-04-15T23:50:22.979Z,3.67
2023-04-15T23:53:27.764Z,6.43
2023-04-15T23:56:32.672Z,4.55
2023-04-15T23:59:36.884Z,3.40
